createdAt,value
2022-10-22T00:01:57.596Z,1.20
2022-10-22T00:04:32.955Z,1.33
2022-10-22T00:07:07.258Z,1.00
2022-10-22T00:13:54.317Z,1.17
2022-10-22T00:16:31.478Z,1.83
2022-10-22T00:19:00.373Z,3.13
2022-10-22T00:21:49.714Z,2.63
2022-10-22T00:24:31.282Z,1.50
2022-10-22T00:27:09.750Z,1.75
2022-10-22T00:29:55.202Z,1.08
2022-10-22T00:32:56.962Z,0.80
2022-10-22T00:35:41.615Z,0.98
2022-10-22T00:38:15.570Z,1.08
2022-10-22T00:45:30.871Z,2.40
2022-10-22T00:48:53.819Z,2.10
2022-10-22T02:17:47.896Z,1.38
2022-10-22T02:24:24.710Z,1.67
2022-10-22T02:27:27.166Z,1.05
2022-10-22T02:30:05.544Z,1.10
2022-10-22T02:32:59.958Z,0.98
2022-10-22T02:35:32.770Z,1.30
2022-10-22T02:38:05.930Z,1.05
2022-10-22T02:40:42.673Z,0.90
2022-10-22T02:43:12.749Z,0.82
2022-10-22T02:45:40.841Z,0.95
2022-10-22T02:48:18.383Z,2.63
2022-10-22T02:51:20.199Z,1.67
2022-10-22T02:54:01.402Z,1.00
2022-10-22T02:56:35.635Z,0.70
2022-10-22T02:59:08.014Z,1.25
2022-10-22T03:01:36.038Z,0.95
2022-10-22T03:04:06.482Z,0.90
2022-10-22T03:06:34.331Z,2.17
2022-10-22T03:09:02.318Z,1.40
2022-10-22T03:11:30.086Z,0.85
2022-10-22T03:13:57.847Z,0.60
2022-10-22T03:16:25.614Z,0.90
2022-10-22T03:18:55.063Z,0.82
2022-10-22T03:21:41.246Z,0.95
2022-10-22T03:24:21.963Z,1.13
2022-10-22T03:27:32.575Z,1.58
2022-10-22T03:30:00.483Z,0.82
2022-10-22T03:32:28.303Z,1.38
2022-10-22T03:34:56.108Z,0.80
2022-10-22T03:37:24.626Z,1.48
2022-10-22T03:39:52.841Z,1.50
2022-10-22T03:42:21.107Z,0.90
2022-10-22T03:44:48.935Z,0.90
2022-10-22T03:47:16.828Z,1.20
2022-10-22T03:49:44.701Z,1.00
2022-10-22T03:52:13.763Z,1.40
2022-10-22T03:54:52.540Z,1.15
2022-10-22T03:57:20.296Z,0.90
2022-10-22T03:59:48.383Z,1.55
2022-10-22T04:02:16.160Z,1.13
2022-10-22T04:04:44.020Z,0.90
2022-10-22T04:07:14.591Z,0.80
2022-10-22T04:09:42.683Z,0.93
2022-10-22T04:12:10.371Z,1.33
2022-10-22T04:14:38.128Z,1.48
2022-10-22T04:17:05.860Z,1.23
2022-10-22T04:19:33.720Z,0.52
2022-10-22T04:22:01.538Z,0.77
2022-10-22T04:25:04.733Z,1.25
2022-10-22T04:27:36.008Z,1.50
2022-10-22T04:30:04.604Z,0.80
2022-10-22T04:32:32.293Z,1.27
2022-10-22T04:34:59.952Z,1.83
2022-10-22T04:37:27.694Z,1.00
2022-10-22T04:39:58.023Z,3.53
2022-10-22T04:42:26.114Z,0.80
2022-10-22T04:44:54.016Z,1.00
2022-10-22T04:47:21.702Z,1.02
2022-10-22T04:49:49.473Z,1.30
2022-10-22T04:52:17.333Z,1.33
2022-10-22T04:54:44.983Z,1.23
2022-10-22T04:57:14.337Z,1.23
2022-10-22T04:59:44.490Z,0.70
2022-10-22T05:02:12.237Z,0.70
2022-10-22T05:04:39.993Z,0.88
2022-10-22T05:07:07.730Z,0.80
2022-10-22T05:09:35.469Z,0.77
2022-10-22T05:12:03.126Z,0.85
2022-10-22T05:14:30.785Z,0.60
2022-10-22T05:16:58.459Z,0.68
2022-10-22T05:19:30.933Z,0.82
2022-10-22T05:22:00.247Z,0.57
2022-10-22T05:24:50.461Z,0.73
2022-10-22T05:29:46.816Z,0.75
2022-10-22T05:32:14.582Z,0.50
2022-10-22T05:34:42.330Z,0.63
2022-10-22T05:37:10.175Z,0.50
2022-10-22T05:39:40.225Z,1.25
2022-10-22T05:42:08.007Z,1.10
2022-10-22T05:44:35.871Z,0.75
2022-10-22T05:47:03.678Z,0.77
2022-10-22T05:49:31.564Z,1.05
2022-10-22T05:51:59.480Z,0.90
2022-10-22T05:54:32.655Z,0.90
2022-10-22T05:57:05.904Z,0.55
2022-10-22T05:59:36.286Z,0.60
2022-10-22T06:02:09.329Z,0.70
2022-10-22T06:04:47.935Z,0.70
2022-10-22T06:07:16.867Z,0.45
2022-10-22T06:09:50.824Z,0.50
2022-10-22T06:12:30.956Z,0.60
2022-10-22T06:14:59.660Z,0.50
2022-10-22T06:20:21.904Z,1.85
2022-10-22T06:22:49.994Z,0.40
2022-10-22T06:25:21.669Z,0.52
2022-10-22T06:27:53.000Z,0.60
2022-10-22T06:32:48.783Z,0.50
2022-10-22T06:38:55.422Z,0.50
2022-10-22T06:41:29.713Z,1.25
2022-10-22T06:43:58.352Z,0.40
2022-10-22T06:46:29.836Z,0.50
2022-10-22T06:48:59.178Z,0.43
2022-10-22T06:51:27.509Z,0.40
2022-10-22T06:53:56.424Z,0.40
2022-10-22T06:56:31.925Z,0.40
2022-10-22T06:59:03.138Z,0.30
2022-10-22T07:01:39.276Z,0.40
2022-10-22T07:04:12.456Z,0.40
2022-10-22T07:06:48.133Z,0.50
2022-10-22T07:11:50.745Z,0.63
2022-10-22T07:14:24.109Z,0.57
2022-10-22T07:16:58.759Z,0.60
2022-10-22T07:19:39.862Z,1.23
2022-10-22T07:22:17.497Z,1.00
2022-10-22T07:25:32.968Z,0.60
2022-10-22T07:28:16.889Z,0.88
2022-10-22T07:30:59.733Z,1.25
2022-10-22T07:33:31.298Z,1.10
2022-10-22T07:36:04.302Z,0.90
2022-10-22T07:38:32.878Z,0.60
2022-10-22T07:41:03.215Z,0.95
2022-10-22T07:43:41.323Z,0.70
2022-10-22T07:46:30.158Z,0.30
2022-10-22T07:49:20.125Z,0.63
2022-10-22T07:51:59.371Z,0.70
2022-10-22T07:54:41.240Z,0.70
2022-10-22T07:57:20.042Z,0.90
2022-10-22T08:00:01.936Z,0.60
2022-10-22T08:05:51.358Z,1.02
2022-10-22T08:15:01.034Z,0.70
2022-10-22T08:28:37.827Z,0.50
2022-10-22T10:08:28.729Z,0.57
2022-10-22T10:57:20.701Z,0.70
2022-10-22T11:00:12.013Z,0.60
2022-10-22T11:03:01.300Z,0.70
2022-10-22T11:05:48.768Z,1.48
2022-10-22T11:12:28.486Z,1.15
2022-10-22T11:15:16.368Z,0.65
2022-10-22T11:17:59.372Z,0.57
2022-10-22T11:21:14.355Z,1.95
2022-10-22T11:24:35.674Z,0.45
2022-10-22T11:27:05.486Z,0.50
2022-10-22T11:29:40.556Z,0.40
2022-10-22T11:32:13.844Z,0.50
2022-10-22T11:34:49.906Z,0.40
2022-10-22T11:37:20.696Z,0.43
2022-10-22T11:40:03.488Z,0.50
2022-10-22T11:42:38.500Z,0.55
2022-10-22T11:45:29.966Z,0.40
2022-10-22T11:48:12.445Z,0.57
2022-10-22T11:50:48.264Z,0.68
2022-10-22T11:53:37.954Z,0.40
2022-10-22T11:56:37.083Z,1.25
2022-10-22T11:59:35.604Z,0.80
2022-10-22T12:11:53.781Z,0.77
2022-10-22T12:26:14.175Z,0.85
2022-10-22T12:28:42.026Z,1.05
2022-10-22T12:31:37.190Z,1.33
2022-10-22T12:34:22.634Z,1.25
2022-10-22T12:36:51.522Z,0.90
2022-10-22T12:39:22.115Z,1.92
2022-10-22T12:41:49.934Z,0.83
2022-10-22T12:44:25.205Z,0.93
2022-10-22T12:46:56.100Z,2.47
2022-10-22T12:50:41.655Z,0.90
2022-10-22T12:53:56.621Z,1.10
2022-10-22T12:57:22.391Z,1.02
2022-10-22T13:00:15.031Z,1.52
2022-10-22T13:02:51.114Z,1.30
2022-10-22T13:05:22.802Z,0.85
2022-10-22T13:07:55.656Z,1.98
2022-10-22T13:10:32.588Z,2.72
2022-10-22T13:13:35.560Z,2.05
2022-10-22T13:18:38.632Z,1.58
2022-10-22T13:21:21.887Z,1.10
2022-10-22T13:23:56.609Z,0.95
2022-10-22T13:27:08.699Z,2.85
2022-10-22T13:29:39.912Z,0.93
2022-10-22T13:34:36.353Z,0.90
2022-10-22T13:37:16.129Z,0.82
2022-10-22T13:39:46.687Z,1.52
2022-10-22T13:42:20.548Z,1.65
2022-10-22T13:44:48.323Z,0.98
2022-10-22T13:47:45.045Z,1.52
2022-10-22T13:50:22.293Z,1.33
2022-10-22T13:52:59.615Z,1.30
2022-10-22T13:55:34.319Z,3.40
2022-10-22T14:00:57.472Z,2.33
2022-10-22T14:03:35.305Z,4.20
2022-10-22T14:06:04.448Z,2.85
2022-10-22T14:08:34.793Z,1.80
2022-10-22T14:11:07.131Z,1.30
2022-10-22T14:13:39.585Z,1.85
2022-10-22T14:16:08.956Z,2.17
2022-10-22T14:18:37.368Z,2.47
2022-10-22T14:21:12.129Z,1.95
2022-10-22T14:23:45.642Z,1.75
2022-10-22T14:26:56.468Z,1.67
2022-10-22T14:29:24.316Z,1.52
2022-10-22T14:31:52.075Z,1.58
2022-10-22T14:34:19.796Z,1.40
2022-10-22T14:36:47.598Z,2.58
2022-10-22T14:39:15.713Z,1.60
2022-10-22T14:41:44.486Z,1.75
2022-10-22T14:44:16.194Z,4.07
2022-10-22T14:46:44.416Z,2.03
2022-10-22T14:49:13.266Z,2.15
2022-10-22T14:51:44.870Z,1.13
2022-10-22T14:54:12.712Z,1.77
2022-10-22T14:57:16.363Z,1.88
2022-10-22T14:59:44.299Z,1.70
2022-10-22T15:02:22.258Z,1.88
2022-10-22T15:04:50.215Z,1.75
2022-10-22T15:07:19.002Z,1.05
2022-10-22T15:09:47.021Z,1.45
2022-10-22T15:12:17.403Z,1.73
2022-10-22T15:14:45.199Z,1.63
2022-10-22T15:17:16.618Z,2.63
2022-10-22T15:19:44.795Z,1.48
2022-10-22T15:22:13.162Z,1.85
2022-10-22T15:24:48.507Z,1.55
2022-10-22T15:27:16.471Z,1.60
2022-10-22T15:29:46.451Z,1.88
2022-10-22T15:32:14.319Z,1.77
2022-10-22T15:34:42.282Z,2.40
2022-10-22T15:37:11.955Z,1.80
2022-10-22T15:39:42.659Z,5.60
2022-10-22T15:42:10.680Z,1.60
2022-10-22T15:44:39.831Z,2.67
2022-10-22T15:47:10.396Z,1.58
2022-10-22T15:49:44.403Z,1.45
2022-10-22T15:52:15.855Z,1.27
2022-10-22T15:54:58.228Z,1.80
2022-10-22T15:57:26.126Z,1.60
2022-10-22T15:59:59.252Z,1.10
2022-10-22T16:02:30.143Z,3.55
2022-10-22T16:04:58.797Z,1.20
2022-10-22T16:07:27.358Z,1.45
2022-10-22T16:10:01.718Z,1.80
2022-10-22T16:12:29.579Z,1.50
2022-10-22T16:14:59.892Z,1.80
2022-10-22T16:17:29.932Z,1.20
2022-10-22T16:20:00.414Z,1.55
2022-10-22T16:22:28.308Z,1.27
2022-10-22T16:25:28.236Z,1.90
2022-10-22T16:27:56.081Z,2.10
2022-10-22T16:30:23.781Z,2.25
2022-10-22T16:32:54.104Z,2.70
2022-10-22T16:35:22.877Z,1.10
2022-10-22T16:37:50.609Z,1.92
2022-10-22T16:40:18.980Z,1.88
2022-10-22T16:42:51.597Z,2.08
2022-10-22T16:45:24.241Z,1.83
2022-10-22T16:47:52.196Z,1.33
2022-10-22T16:50:37.989Z,2.28
2022-10-22T16:53:05.692Z,2.35
2022-10-22T16:56:10.369Z,1.23
2022-10-22T16:58:38.517Z,2.85
2022-10-22T17:01:08.004Z,1.52
2022-10-22T17:03:35.909Z,1.80
2022-10-22T17:06:08.889Z,1.75
2022-10-22T17:08:40.254Z,2.10
2022-10-22T17:11:32.685Z,2.53
2022-10-22T17:14:00.513Z,2.50
2022-10-22T17:16:28.500Z,2.72
2022-10-22T17:21:43.477Z,2.88
2022-10-22T17:24:25.054Z,2.65
2022-10-22T17:27:23.562Z,1.92
2022-10-22T17:32:32.110Z,2.33
2022-10-22T17:35:01.557Z,1.60
2022-10-22T17:37:40.709Z,1.50
2022-10-22T17:40:24.478Z,2.50
2022-10-22T17:42:56.675Z,7.35
2022-10-22T17:45:25.270Z,1.80
2022-10-22T17:47:58.679Z,1.90
2022-10-22T17:50:31.387Z,2.63
2022-10-22T17:52:59.394Z,3.33
2022-10-22T17:55:34.751Z,2.35
2022-10-22T17:58:04.812Z,2.20
2022-10-22T18:00:41.117Z,2.85
2022-10-22T18:03:09.683Z,8.73
2022-10-22T18:05:41.878Z,5.13
2022-10-22T18:08:10.900Z,5.00
2022-10-22T18:10:42.621Z,5.97
2022-10-22T18:13:13.979Z,7.93
2022-10-22T18:15:44.095Z,5.93
2022-10-22T18:18:21.207Z,28.40
2022-10-22T18:21:04.607Z,14.27
2022-10-22T18:23:41.096Z,14.23
2022-10-22T18:26:24.269Z,5.07
2022-10-22T18:29:07.885Z,9.13
2022-10-22T18:31:37.120Z,5.90
2022-10-22T18:34:06.996Z,9.38
2022-10-22T18:36:37.197Z,13.45
2022-10-22T18:39:10.100Z,12.93
2022-10-22T18:41:37.933Z,6.10
2022-10-22T18:44:06.604Z,8.32
2022-10-22T18:46:38.300Z,8.07
2022-10-22T18:49:11.660Z,3.75
2022-10-22T18:51:43.877Z,9.07
2022-10-22T18:54:22.638Z,15.25
2022-10-22T18:57:02.588Z,6.22
2022-10-22T18:59:30.966Z,6.03
2022-10-22T19:01:59.821Z,10.18
2022-10-22T19:04:33.259Z,3.80
2022-10-22T19:07:01.439Z,4.13
2022-10-22T19:09:31.594Z,9.57
2022-10-22T19:12:00.088Z,8.23
2022-10-22T19:14:30.249Z,7.13
2022-10-22T19:16:58.101Z,8.00
2022-10-22T19:19:26.129Z,5.35
2022-10-22T19:21:58.702Z,5.55
2022-10-22T19:24:39.254Z,5.10
2022-10-22T19:27:08.390Z,2.73
2022-10-22T19:29:38.942Z,2.53
2022-10-22T19:32:13.357Z,3.05
2022-10-22T19:34:46.974Z,2.85
2022-10-22T19:39:45.642Z,2.80
2022-10-22T19:42:16.989Z,2.55
2022-10-22T19:44:47.866Z,6.80
2022-10-22T19:47:16.238Z,5.22
2022-10-22T19:49:44.066Z,3.95
2022-10-22T19:52:11.835Z,6.97
2022-10-22T19:55:17.914Z,7.03
2022-10-22T19:57:49.312Z,2.42
2022-10-22T20:00:32.229Z,4.18
